sensor_id;sensor_type;location;lat;lon;timestamp;P1;durP1;ratioP1;P2;durP2;ratioP2
72584;SDS011;60618;40.084;32.908;2023-10-09T00:01:11;14.23;;;6.22;;
72584;SDS011;60618;40.084;32.908;2023-10-09T00:03:39;14.48;;;6.20;;
72584;SDS011;60618;40.084;32.908;2023-10-09T00:06:07;14.63;;;6.53;;
72584;SDS011;60618;40.084;32.908;2023-10-09T00:08:34;13.43;;;6.30;;
72584;SDS011;60618;40.084;32.908;2023-10-09T00:11:01;14.02;;;5.72;;
72584;SDS011;60618;40.084;32.908;2023-10-09T00:13:28;13.80;;;5.97;;
72584;SDS011;60618;40.084;32.908;2023-10-09T00:15:55;16.77;;;6.70;;
72584;SDS011;60618;40.084;32.908;2023-10-09T00:18:24;14.15;;;6.47;;
72584;SDS011;60618;40.084;32.908;2023-10-09T00:20:51;15.80;;;6.27;;
72584;SDS011;60618;40.084;32.908;2023-10-09T00:23:18;13.15;;;6.13;;
72584;SDS011;60618;40.084;32.908;2023-10-09T00:25:48;14.80;;;6.15;;
72584;SDS011;60618;40.084;32.908;2023-10-09T00:28:15;14.25;;;5.82;;
72584;SDS011;60618;40.084;32.908;2023-10-09T00:30:42;16.00;;;6.75;;
72584;SDS011;60618;40.084;32.908;2023-10-09T00:33:09;14.83;;;6.33;;
72584;SDS011;60618;40.084;32.908;2023-10-09T00:35:37;14.93;;;6.38;;
72584;SDS011;60618;40.084;32.908;2023-10-09T00:38:05;16.15;;;6.28;;
72584;SDS011;60618;40.084;32.908;2023-10-09T00:40:32;14.00;;;6.18;;
72584;SDS011;60618;40.084;32.908;2023-10-09T00:42:59;14.45;;;6.60;;
72584;SDS011;60618;40.084;32.908;2023-10-09T00:45:26;16.10;;;6.90;;
72584;SDS011;60618;40.084;32.908;2023-10-09T00:47:53;13.63;;;6.28;;
72584;SDS011;60618;40.084;32.908;2023-10-09T00:50:21;13.18;;;6.13;;
72584;SDS011;60618;40.084;32.908;2023-10-09T00:52:50;12.85;;;5.50;;
72584;SDS011;60618;40.084;32.908;2023-10-09T00:55:20;13.05;;;5.45;;
72584;SDS011;60618;40.084;32.908;2023-10-09T00:57:48;13.73;;;6.53;;
72584;SDS011;60618;40.084;32.908;2023-10-09T01:00:17;18.40;;;8.13;;
72584;SDS011;60618;40.084;32.908;2023-10-09T01:02:44;19.80;;;7.85;;
72584;SDS011;60618;40.084;32.908;2023-10-09T01:05:14;19.13;;;7.88;;
72584;SDS011;60618;40.084;32.908;2023-10-09T01:07:41;16.00;;;6.80;;
72584;SDS011;60618;40.084;32.908;2023-10-09T01:10:08;15.57;;;6.50;;
72584;SDS011;60618;40.084;32.908;2023-10-09T01:12:35;13.23;;;6.05;;
72584;SDS011;60618;40.084;32.908;2023-10-09T01:15:02;14.90;;;6.00;;
72584;SDS011;60618;40.084;32.908;2023-10-09T01:17:29;13.18;;;5.80;;
72584;SDS011;60618;40.084;32.908;2023-10-09T01:19:56;14.70;;;6.20;;
72584;SDS011;60618;40.084;32.908;2023-10-09T01:22:23;18.00;;;6.93;;
72584;SDS011;60618;40.084;32.908;2023-10-09T01:24:50;21.00;;;7.75;;
72584;SDS011;60618;40.084;32.908;2023-10-09T01:27:16;15.40;;;6.97;;
72584;SDS011;60618;40.084;32.908;2023-10-09T01:29:44;17.08;;;7.88;;
72584;SDS011;60618;40.084;32.908;2023-10-09T01:32:10;15.82;;;7.28;;
72584;SDS011;60618;40.084;32.908;2023-10-09T01:34:38;15.70;;;7.13;;
72584;SDS011;60618;40.084;32.908;2023-10-09T01:37:06;14.65;;;6.20;;
72584;SDS011;60618;40.084;32.908;2023-10-09T01:39:40;14.27;;;6.18;;
72584;SDS011;60618;40.084;32.908;2023-10-09T01:42:08;14.23;;;5.95;;
72584;SDS011;60618;40.084;32.908;2023-10-09T01:44:35;19.52;;;7.75;;
72584;SDS011;60618;40.084;32.908;2023-10-09T01:47:03;15.73;;;6.50;;
72584;SDS011;60618;40.084;32.908;2023-10-09T01:49:35;17.98;;;7.55;;
72584;SDS011;60618;40.084;32.908;2023-10-09T01:52:03;18.65;;;8.57;;
72584;SDS011;60618;40.084;32.908;2023-10-09T01:54:30;16.13;;;7.50;;
72584;SDS011;60618;40.084;32.908;2023-10-09T01:56:57;16.67;;;7.10;;
72584;SDS011;60618;40.084;32.908;2023-10-09T01:59:24;17.10;;;7.40;;
72584;SDS011;60618;40.084;32.908;2023-10-09T02:01:51;14.25;;;6.72;;
72584;SDS011;60618;40.084;32.908;2023-10-09T02:04:18;18.95;;;7.82;;
72584;SDS011;60618;40.084;32.908;2023-10-09T02:06:45;18.45;;;8.20;;
72584;SDS011;60618;40.084;32.908;2023-10-09T02:09:12;16.25;;;8.02;;
72584;SDS011;60618;40.084;32.908;2023-10-09T02:11:39;21.37;;;7.80;;
72584;SDS011;60618;40.084;32.908;2023-10-09T02:14:06;17.15;;;7.57;;
72584;SDS011;60618;40.084;32.908;2023-10-09T02:16:32;18.80;;;8.13;;
72584;SDS011;60618;40.084;32.908;2023-10-09T02:18:59;17.98;;;7.68;;
72584;SDS011;60618;40.084;32.908;2023-10-09T02:21:26;16.30;;;7.80;;
72584;SDS011;60618;40.084;32.908;2023-10-09T02:23:53;18.53;;;8.00;;
72584;SDS011;60618;40.084;32.908;2023-10-09T02:26:21;18.33;;;7.90;;
72584;SDS011;60618;40.084;32.908;2023-10-09T02:28:47;18.80;;;7.70;;
72584;SDS011;60618;40.084;32.908;2023-10-09T02:31:14;18.65;;;8.35;;
72584;SDS011;60618;40.084;32.908;2023-10-09T02:33:41;20.65;;;8.02;;
72584;SDS011;60618;40.084;32.908;2023-10-09T02:36:08;18.73;;;7.80;;
72584;SDS011;60618;40.084;32.908;2023-10-09T02:38:35;14.15;;;6.28;;
72584;SDS011;60618;40.084;32.908;2023-10-09T02:41:02;13.13;;;6.05;;
72584;SDS011;60618;40.084;32.908;2023-10-09T02:43:33;13.10;;;5.40;;
72584;SDS011;60618;40.084;32.908;2023-10-09T02:49:30;16.83;;;6.90;;
72584;SDS011;60618;40.084;32.908;2023-10-09T02:51:57;18.80;;;7.78;;
72584;SDS011;60618;40.084;32.908;2023-10-09T02:54:24;19.13;;;8.00;;
72584;SDS011;60618;40.084;32.908;2023-10-09T02:56:51;18.23;;;8.23;;
72584;SDS011;60618;40.084;32.908;2023-10-09T02:59:19;18.95;;;8.13;;
72584;SDS011;60618;40.084;32.908;2023-10-09T03:01:46;20.43;;;8.00;;
72584;SDS011;60618;40.084;32.908;2023-10-09T03:04:12;19.42;;;7.90;;
72584;SDS011;60618;40.084;32.908;2023-10-09T03:06:43;19.08;;;7.93;;
72584;SDS011;60618;40.084;32.908;2023-10-09T03:09:10;17.33;;;7.55;;
72584;SDS011;60618;40.084;32.908;2023-10-09T03:11:37;16.40;;;7.80;;
72584;SDS011;60618;40.084;32.908;2023-10-09T03:14:04;16.87;;;7.60;;
72584;SDS011;60618;40.084;32.908;2023-10-09T03:16:31;20.00;;;7.57;;
72584;SDS011;60618;40.084;32.908;2023-10-09T03:18:57;17.20;;;7.75;;
72584;SDS011;60618;40.084;32.908;2023-10-09T03:21:24;19.30;;;7.80;;
72584;SDS011;60618;40.084;32.908;2023-10-09T03:23:51;20.67;;;8.50;;
72584;SDS011;60618;40.084;32.908;2023-10-09T03:26:18;19.87;;;8.57;;
72584;SDS011;60618;40.084;32.908;2023-10-09T03:28:48;18.77;;;8.75;;
72584;SDS011;60618;40.084;32.908;2023-10-09T03:31:15;20.25;;;8.57;;
72584;SDS011;60618;40.084;32.908;2023-10-09T03:33:42;19.20;;;8.90;;
72584;SDS011;60618;40.084;32.908;2023-10-09T03:36:09;26.08;;;9.93;;
72584;SDS011;60618;40.084;32.908;2023-10-09T03:38:37;21.07;;;8.80;;
72584;SDS011;60618;40.084;32.908;2023-10-09T03:41:07;22.15;;;8.50;;
72584;SDS011;60618;40.084;32.908;2023-10-09T03:43:34;18.27;;;8.05;;
72584;SDS011;60618;40.084;32.908;2023-10-09T03:46:02;19.75;;;7.68;;
72584;SDS011;60618;40.084;32.908;2023-10-09T03:48:29;25.80;;;11.05;;
72584;SDS011;60618;40.084;32.908;2023-10-09T03:50:56;27.30;;;11.57;;
72584;SDS011;60618;40.084;32.908;2023-10-09T03:53:23;34.85;;;14.07;;
72584;SDS011;60618;40.084;32.908;2023-10-09T03:55:50;28.10;;;11.55;;
72584;SDS011;60618;40.084;32.908;2023-10-09T03:58:17;24.42;;;10.93;;
72584;SDS011;60618;40.084;32.908;2023-10-09T04:00:44;27.92;;;11.10;;
72584;SDS011;60618;40.084;32.908;2023-10-09T04:03:12;24.00;;;9.00;;
72584;SDS011;60618;40.084;32.908;2023-10-09T04:05:39;23.77;;;10.55;;
72584;SDS011;60618;40.084;32.908;2023-10-09T04:08:06;24.17;;;10.18;;
72584;SDS011;60618;40.084;32.908;2023-10-09T04:10:33;23.40;;;10.93;;
72584;SDS011;60618;40.084;32.908;2023-10-09T04:13:00;21.95;;;10.02;;
72584;SDS011;60618;40.084;32.908;2023-10-09T04:15:27;27.63;;;10.83;;
72584;SDS011;60618;40.084;32.908;2023-10-09T04:17:54;31.52;;;11.80;;
72584;SDS011;60618;40.084;32.908;2023-10-09T04:20:21;30.77;;;10.68;;
72584;SDS011;60618;40.084;32.908;2023-10-09T04:22:48;29.70;;;11.13;;
72584;SDS011;60618;40.084;32.908;2023-10-09T04:25:15;25.63;;;11.18;;
72584;SDS011;60618;40.084;32.908;2023-10-09T04:27:45;23.13;;;11.07;;
72584;SDS011;60618;40.084;32.908;2023-10-09T04:30:12;27.60;;;10.80;;
72584;SDS011;60618;40.084;32.908;2023-10-09T04:32:39;30.67;;;11.20;;
72584;SDS011;60618;40.084;32.908;2023-10-09T04:35:07;29.33;;;11.15;;
72584;SDS011;60618;40.084;32.908;2023-10-09T04:37:34;27.67;;;10.40;;
72584;SDS011;60618;40.084;32.908;2023-10-09T04:40:04;29.63;;;11.50;;
72584;SDS011;60618;40.084;32.908;2023-10-09T04:42:31;27.95;;;11.57;;
72584;SDS011;60618;40.084;32.908;2023-10-09T04:44:58;25.73;;;11.35;;
72584;SDS011;60618;40.084;32.908;2023-10-09T04:47:28;28.30;;;11.75;;
72584;SDS011;60618;40.084;32.908;2023-10-09T04:49:56;30.60;;;12.50;;
72584;SDS011;60618;40.084;32.908;2023-10-09T04:52:23;33.50;;;13.60;;
72584;SDS011;60618;40.084;32.908;2023-10-09T04:54:50;28.88;;;12.50;;
72584;SDS011;60618;40.084;32.908;2023-10-09T04:57:20;25.75;;;11.57;;
72584;SDS011;60618;40.084;32.908;2023-10-09T04:59:47;25.17;;;11.40;;
72584;SDS011;60618;40.084;32.908;2023-10-09T05:02:14;28.30;;;12.23;;
72584;SDS011;60618;40.084;32.908;2023-10-09T05:04:41;37.97;;;14.70;;
72584;SDS011;60618;40.084;32.908;2023-10-09T05:07:08;28.33;;;14.20;;
72584;SDS011;60618;40.084;32.908;2023-10-09T05:09:35;26.73;;;12.55;;
72584;SDS011;60618;40.084;32.908;2023-10-09T05:12:02;22.83;;;10.77;;
72584;SDS011;60618;40.084;32.908;2023-10-09T05:14:29;29.77;;;13.27;;
72584;SDS011;60618;40.084;32.908;2023-10-09T05:16:56;30.00;;;12.97;;
72584;SDS011;60618;40.084;32.908;2023-10-09T05:19:23;28.73;;;10.88;;
72584;SDS011;60618;40.084;32.908;2023-10-09T05:21:50;25.63;;;12.27;;
72584;SDS011;60618;40.084;32.908;2023-10-09T05:24:17;33.03;;;14.10;;
72584;SDS011;60618;40.084;32.908;2023-10-09T05:26:44;33.33;;;14.27;;
72584;SDS011;60618;40.084;32.908;2023-10-09T05:29:16;30.93;;;13.30;;
72584;SDS011;60618;40.084;32.908;2023-10-09T05:31:43;27.75;;;12.95;;
72584;SDS011;60618;40.084;32.908;2023-10-09T05:34:10;24.67;;;10.50;;
72584;SDS011;60618;40.084;32.908;2023-10-09T05:36:37;20.35;;;9.70;;
72584;SDS011;60618;40.084;32.908;2023-10-09T05:39:04;24.25;;;12.68;;
72584;SDS011;60618;40.084;32.908;2023-10-09T05:41:31;24.20;;;11.33;;
72584;SDS011;60618;40.084;32.908;2023-10-09T05:43:58;25.70;;;12.23;;
72584;SDS011;60618;40.084;32.908;2023-10-09T05:46:25;29.15;;;13.05;;
72584;SDS011;60618;40.084;32.908;2023-10-09T05:48:52;29.85;;;12.50;;
72584;SDS011;60618;40.084;32.908;2023-10-09T05:51:19;39.88;;;14.00;;
72584;SDS011;60618;40.084;32.908;2023-10-09T05:53:46;33.53;;;13.50;;
72584;SDS011;60618;40.084;32.908;2023-10-09T05:56:13;27.08;;;10.73;;
72584;SDS011;60618;40.084;32.908;2023-10-09T05:58:40;31.33;;;12.80;;
72584;SDS011;60618;40.084;32.908;2023-10-09T06:01:07;27.73;;;11.70;;
72584;SDS011;60618;40.084;32.908;2023-10-09T06:03:33;27.88;;;11.48;;
72584;SDS011;60618;40.084;32.908;2023-10-09T06:06:00;25.70;;;11.20;;
72584;SDS011;60618;40.084;32.908;2023-10-09T06:08:29;29.77;;;13.10;;
72584;SDS011;60618;40.084;32.908;2023-10-09T06:10:57;26.70;;;10.40;;
72584;SDS011;60618;40.084;32.908;2023-10-09T06:13:24;27.20;;;10.30;;
72584;SDS011;60618;40.084;32.908;2023-10-09T06:15:51;27.98;;;12.07;;
72584;SDS011;60618;40.084;32.908;2023-10-09T06:18:18;29.10;;;11.03;;
72584;SDS011;60618;40.084;32.908;2023-10-09T06:20:45;26.40;;;11.32;;
72584;SDS011;60618;40.084;32.908;2023-10-09T06:23:12;26.52;;;11.55;;
72584;SDS011;60618;40.084;32.908;2023-10-09T06:25:38;21.67;;;9.82;;
72584;SDS011;60618;40.084;32.908;2023-10-09T06:28:05;25.38;;;10.85;;
72584;SDS011;60618;40.084;32.908;2023-10-09T06:30:34;22.73;;;10.60;;
72584;SDS011;60618;40.084;32.908;2023-10-09T06:33:01;42.83;;;14.57;;
72584;SDS011;60618;40.084;32.908;2023-10-09T06:35:28;38.88;;;17.80;;
72584;SDS011;60618;40.084;32.908;2023-10-09T06:37:55;28.90;;;14.73;;
72584;SDS011;60618;40.084;32.908;2023-10-09T06:40:24;31.02;;;13.57;;
72584;SDS011;60618;40.084;32.908;2023-10-09T06:42:51;33.43;;;14.73;;
72584;SDS011;60618;40.084;32.908;2023-10-09T06:45:18;33.78;;;13.13;;
72584;SDS011;60618;40.084;32.908;2023-10-09T06:47:49;22.88;;;10.55;;
72584;SDS011;60618;40.084;32.908;2023-10-09T06:50:16;27.83;;;11.93;;
72584;SDS011;60618;40.084;32.908;2023-10-09T06:52:43;30.27;;;12.30;;
72584;SDS011;60618;40.084;32.908;2023-10-09T06:55:10;53.80;;;27.50;;
72584;SDS011;60618;40.084;32.908;2023-10-09T06:57:37;53.92;;;29.33;;
72584;SDS011;60618;40.084;32.908;2023-10-09T07:00:04;37.67;;;16.63;;
72584;SDS011;60618;40.084;32.908;2023-10-09T07:02:32;37.50;;;14.82;;
72584;SDS011;60618;40.084;32.908;2023-10-09T07:04:59;38.22;;;14.00;;
72584;SDS011;60618;40.084;32.908;2023-10-09T07:07:25;28.07;;;11.93;;
72584;SDS011;60618;40.084;32.908;2023-10-09T07:09:52;20.77;;;9.35;;
72584;SDS011;60618;40.084;32.908;2023-10-09T07:12:19;17.58;;;8.00;;
72584;SDS011;60618;40.084;32.908;2023-10-09T07:14:46;15.98;;;7.55;;
72584;SDS011;60618;40.084;32.908;2023-10-09T07:17:13;19.80;;;8.02;;
72584;SDS011;60618;40.084;32.908;2023-10-09T07:19:40;15.43;;;7.23;;
72584;SDS011;60618;40.084;32.908;2023-10-09T07:22:11;15.23;;;7.50;;
72584;SDS011;60618;40.084;32.908;2023-10-09T07:24:38;17.23;;;7.50;;
72584;SDS011;60618;40.084;32.908;2023-10-09T07:27:05;15.77;;;7.63;;
72584;SDS011;60618;40.084;32.908;2023-10-09T07:29:32;22.48;;;9.73;;
72584;SDS011;60618;40.084;32.908;2023-10-09T07:31:59;21.17;;;10.33;;
72584;SDS011;60618;40.084;32.908;2023-10-09T07:34:26;33.78;;;14.20;;
72584;SDS011;60618;40.084;32.908;2023-10-09T07:36:53;31.50;;;14.20;;
72584;SDS011;60618;40.084;32.908;2023-10-09T07:39:20;34.60;;;14.57;;
72584;SDS011;60618;40.084;32.908;2023-10-09T07:41:47;33.75;;;14.68;;
72584;SDS011;60618;40.084;32.908;2023-10-09T07:44:15;16.27;;;8.03;;
72584;SDS011;60618;40.084;32.908;2023-10-09T07:46:41;15.63;;;7.53;;
72584;SDS011;60618;40.084;32.908;2023-10-09T07:49:09;14.38;;;6.07;;
72584;SDS011;60618;40.084;32.908;2023-10-09T07:51:36;20.20;;;6.47;;
72584;SDS011;60618;40.084;32.908;2023-10-09T07:54:05;9.98;;;4.25;;
72584;SDS011;60618;40.084;32.908;2023-10-09T07:56:32;7.70;;;2.70;;
72584;SDS011;60618;40.084;32.908;2023-10-09T07:59:00;6.35;;;2.88;;
72584;SDS011;60618;40.084;32.908;2023-10-09T08:01:26;4.68;;;2.10;;
72584;SDS011;60618;40.084;32.908;2023-10-09T08:03:53;6.97;;;2.40;;
72584;SDS011;60618;40.084;32.908;2023-10-09T08:06:21;11.35;;;2.90;;
72584;SDS011;60618;40.084;32.908;2023-10-09T08:08:48;6.07;;;2.40;;
72584;SDS011;60618;40.084;32.908;2023-10-09T08:11:15;16.67;;;3.05;;
72584;SDS011;60618;40.084;32.908;2023-10-09T08:13:42;9.13;;;2.50;;
72584;SDS011;60618;40.084;32.908;2023-10-09T08:16:09;6.68;;;2.60;;
72584;SDS011;60618;40.084;32.908;2023-10-09T08:18:36;7.05;;;2.20;;
72584;SDS011;60618;40.084;32.908;2023-10-09T08:21:03;7.83;;;2.10;;
72584;SDS011;60618;40.084;32.908;2023-10-09T08:23:30;5.57;;;2.20;;
72584;SDS011;60618;40.084;32.908;2023-10-09T08:26:00;4.78;;;2.00;;
72584;SDS011;60618;40.084;32.908;2023-10-09T08:28:31;6.70;;;2.20;;
72584;SDS011;60618;40.084;32.908;2023-10-09T08:30:58;3.88;;;1.40;;
72584;SDS011;60618;40.084;32.908;2023-10-09T08:33:25;3.40;;;1.10;;
72584;SDS011;60618;40.084;32.908;2023-10-09T08:35:55;3.90;;;1.40;;
72584;SDS011;60618;40.084;32.908;2023-10-09T08:38:23;5.65;;;1.48;;
72584;SDS011;60618;40.084;32.908;2023-10-09T08:40:51;3.75;;;1.48;;
72584;SDS011;60618;40.084;32.908;2023-10-09T08:43:19;3.45;;;1.30;;
72584;SDS011;60618;40.084;32.908;2023-10-09T08:45:48;4.77;;;1.03;;
72584;SDS011;60618;40.084;32.908;2023-10-09T08:48:16;5.05;;;1.10;;
72584;SDS011;60618;40.084;32.908;2023-10-09T08:50:46;4.13;;;1.15;;
72584;SDS011;60618;40.084;32.908;2023-10-09T08:53:16;5.55;;;1.00;;
72584;SDS011;60618;40.084;32.908;2023-10-09T08:55:43;6.15;;;1.10;;
72584;SDS011;60618;40.084;32.908;2023-10-09T08:58:10;5.03;;;1.20;;
72584;SDS011;60618;40.084;32.908;2023-10-09T09:00:38;4.28;;;1.20;;
72584;SDS011;60618;40.084;32.908;2023-10-09T09:03:06;5.90;;;1.30;;
72584;SDS011;60618;40.084;32.908;2023-10-09T09:05:33;6.30;;;1.10;;
72584;SDS011;60618;40.084;32.908;2023-10-09T09:08:00;3.50;;;0.80;;
72584;SDS011;60618;40.084;32.908;2023-10-09T09:10:27;5.10;;;1.20;;
72584;SDS011;60618;40.084;32.908;2023-10-09T09:12:55;3.92;;;1.00;;
72584;SDS011;60618;40.084;32.908;2023-10-09T09:15:22;4.65;;;0.93;;
72584;SDS011;60618;40.084;32.908;2023-10-09T09:17:49;4.93;;;1.00;;
72584;SDS011;60618;40.084;32.908;2023-10-09T09:20:23;4.90;;;1.02;;
72584;SDS011;60618;40.084;32.908;2023-10-09T09:22:54;14.20;;;6.33;;
72584;SDS011;60618;40.084;32.908;2023-10-09T09:25:23;13.13;;;5.88;;
72584;SDS011;60618;40.084;32.908;2023-10-09T09:27:51;14.85;;;7.00;;
72584;SDS011;60618;40.084;32.908;2023-10-09T09:30:24;15.30;;;7.00;;
72584;SDS011;60618;40.084;32.908;2023-10-09T09:32:55;16.67;;;7.45;;
72584;SDS011;60618;40.084;32.908;2023-10-09T09:35:22;15.10;;;7.10;;
72584;SDS011;60618;40.084;32.908;2023-10-09T09:37:53;14.50;;;7.03;;
72584;SDS011;60618;40.084;32.908;2023-10-09T09:40:20;14.85;;;7.70;;
72584;SDS011;60618;40.084;32.908;2023-10-09T09:42:47;13.25;;;6.95;;
72584;SDS011;60618;40.084;32.908;2023-10-09T09:45:15;10.45;;;5.20;;
72584;SDS011;60618;40.084;32.908;2023-10-09T09:47:45;10.23;;;4.40;;
72584;SDS011;60618;40.084;32.908;2023-10-09T09:50:12;7.32;;;3.45;;
72584;SDS011;60618;40.084;32.908;2023-10-09T09:52:39;9.68;;;3.95;;
72584;SDS011;60618;40.084;32.908;2023-10-09T09:55:13;6.18;;;2.83;;
72584;SDS011;60618;40.084;32.908;2023-10-09T10:04:47;9.00;;;1.20;;
72584;SDS011;60618;40.084;32.908;2023-10-09T10:07:20;4.40;;;1.00;;
72584;SDS011;60618;40.084;32.908;2023-10-09T10:09:49;4.40;;;1.20;;
72584;SDS011;60618;40.084;32.908;2023-10-09T10:12:16;4.18;;;1.00;;
72584;SDS011;60618;40.084;32.908;2023-10-09T10:15:12;5.57;;;1.10;;
72584;SDS011;60618;40.084;32.908;2023-10-09T10:20:24;3.88;;;1.10;;
72584;SDS011;60618;40.084;32.908;2023-10-09T10:22:51;3.80;;;1.35;;
72584;SDS011;60618;40.084;32.908;2023-10-09T10:25:41;3.88;;;0.80;;
72584;SDS011;60618;40.084;32.908;2023-10-09T10:28:21;5.80;;;1.37;;
72584;SDS011;60618;40.084;32.908;2023-10-09T10:30:48;6.55;;;1.40;;
72584;SDS011;60618;40.084;32.908;2023-10-09T10:33:15;4.97;;;1.20;;
72584;SDS011;60618;40.084;32.908;2023-10-09T10:35:43;3.90;;;1.10;;
72584;SDS011;60618;40.084;32.908;2023-10-09T10:38:26;4.80;;;1.27;;
72584;SDS011;60618;40.084;32.908;2023-10-09T10:40:54;5.33;;;1.20;;
72584;SDS011;60618;40.084;32.908;2023-10-09T10:43:21;4.85;;;1.20;;
72584;SDS011;60618;40.084;32.908;2023-10-09T10:45:51;4.63;;;1.20;;
72584;SDS011;60618;40.084;32.908;2023-10-09T10:48:34;5.15;;;1.13;;
72584;SDS011;60618;40.084;32.908;2023-10-09T10:51:02;4.07;;;1.27;;
72584;SDS011;60618;40.084;32.908;2023-10-09T10:53:34;3.67;;;1.10;;
72584;SDS011;60618;40.084;32.908;2023-10-09T10:56:01;4.15;;;1.10;;
72584;SDS011;60618;40.084;32.908;2023-10-09T10:58:29;4.40;;;1.30;;
72584;SDS011;60618;40.084;32.908;2023-10-09T11:00:56;4.97;;;1.20;;
72584;SDS011;60618;40.084;32.908;2023-10-09T11:03:24;4.72;;;1.27;;
72584;SDS011;60618;40.084;32.908;2023-10-09T11:05:52;3.43;;;1.10;;
72584;SDS011;60618;40.084;32.908;2023-10-09T11:08:23;4.20;;;1.20;;
72584;SDS011;60618;40.084;32.908;2023-10-09T11:10:51;5.18;;;1.30;;
72584;SDS011;60618;40.084;32.908;2023-10-09T11:13:24;4.15;;;1.17;;
72584;SDS011;60618;40.084;32.908;2023-10-09T11:15:53;5.18;;;1.50;;
72584;SDS011;60618;40.084;32.908;2023-10-09T11:18:19;5.17;;;1.30;;
72584;SDS011;60618;40.084;32.908;2023-10-09T11:20:53;3.40;;;1.05;;
72584;SDS011;60618;40.084;32.908;2023-10-09T11:23:23;4.43;;;1.30;;
72584;SDS011;60618;40.084;32.908;2023-10-09T11:25:51;4.15;;;1.20;;
72584;SDS011;60618;40.084;32.908;2023-10-09T11:28:23;5.82;;;1.50;;
72584;SDS011;60618;40.084;32.908;2023-10-09T11:30:50;8.30;;;1.50;;
72584;SDS011;60618;40.084;32.908;2023-10-09T11:33:17;4.22;;;1.40;;
72584;SDS011;60618;40.084;32.908;2023-10-09T11:35:53;4.57;;;1.20;;
72584;SDS011;60618;40.084;32.908;2023-10-09T11:38:21;4.25;;;1.55;;
72584;SDS011;60618;40.084;32.908;2023-10-09T11:40:48;5.35;;;1.20;;
72584;SDS011;60618;40.084;32.908;2023-10-09T11:43:15;5.90;;;1.20;;
72584;SDS011;60618;40.084;32.908;2023-10-09T11:45:42;10.05;;;1.42;;
72584;SDS011;60618;40.084;32.908;2023-10-09T11:48:16;5.25;;;1.30;;
72584;SDS011;60618;40.084;32.908;2023-10-09T11:50:45;3.90;;;1.40;;
72584;SDS011;60618;40.084;32.908;2023-10-09T11:53:13;5.68;;;1.30;;
72584;SDS011;60618;40.084;32.908;2023-10-09T11:55:40;5.13;;;1.60;;
72584;SDS011;60618;40.084;32.908;2023-10-09T11:58:07;6.35;;;1.45;;
72584;SDS011;60618;40.084;32.908;2023-10-09T12:00:35;6.20;;;1.60;;
72584;SDS011;60618;40.084;32.908;2023-10-09T12:03:01;5.57;;;1.30;;
72584;SDS011;60618;40.084;32.908;2023-10-09T12:05:29;4.85;;;1.38;;
72584;SDS011;60618;40.084;32.908;2023-10-09T12:07:56;6.00;;;1.40;;
72584;SDS011;60618;40.084;32.908;2023-10-09T12:10:22;3.95;;;1.10;;
72584;SDS011;60618;40.084;32.908;2023-10-09T12:12:50;5.80;;;1.20;;
72584;SDS011;60618;40.084;32.908;2023-10-09T12:15:18;4.30;;;1.35;;
72584;SDS011;60618;40.084;32.908;2023-10-09T12:17:45;7.40;;;1.40;;
72584;SDS011;60618;40.084;32.908;2023-10-09T12:20:16;5.77;;;1.27;;
72584;SDS011;60618;40.084;32.908;2023-10-09T12:22:43;6.85;;;1.45;;
72584;SDS011;60618;40.084;32.908;2023-10-09T12:25:10;3.72;;;1.27;;
72584;SDS011;60618;40.084;32.908;2023-10-09T12:27:37;4.10;;;1.50;;
72584;SDS011;60618;40.084;32.908;2023-10-09T12:30:04;3.78;;;1.30;;
72584;SDS011;60618;40.084;32.908;2023-10-09T12:32:31;10.90;;;1.70;;
72584;SDS011;60618;40.084;32.908;2023-10-09T12:34:58;4.75;;;1.30;;
72584;SDS011;60618;40.084;32.908;2023-10-09T12:37:25;4.88;;;1.30;;
72584;SDS011;60618;40.084;32.908;2023-10-09T12:39:52;4.22;;;1.40;;
72584;SDS011;60618;40.084;32.908;2023-10-09T12:42:19;4.65;;;1.23;;
72584;SDS011;60618;40.084;32.908;2023-10-09T12:44:46;6.17;;;1.40;;
72584;SDS011;60618;40.084;32.908;2023-10-09T12:47:13;4.78;;;1.30;;
72584;SDS011;60618;40.084;32.908;2023-10-09T12:49:42;4.40;;;1.48;;
72584;SDS011;60618;40.084;32.908;2023-10-09T12:52:09;4.45;;;1.33;;
72584;SDS011;60618;40.084;32.908;2023-10-09T12:54:36;7.07;;;1.45;;
72584;SDS011;60618;40.084;32.908;2023-10-09T12:57:03;11.13;;;1.80;;
72584;SDS011;60618;40.084;32.908;2023-10-09T12:59:30;6.13;;;1.50;;
72584;SDS011;60618;40.084;32.908;2023-10-09T13:01:57;5.68;;;1.35;;
72584;SDS011;60618;40.084;32.908;2023-10-09T13:04:24;6.90;;;1.50;;
72584;SDS011;60618;40.084;32.908;2023-10-09T13:06:51;5.95;;;1.63;;
72584;SDS011;60618;40.084;32.908;2023-10-09T13:09:18;5.50;;;1.30;;
72584;SDS011;60618;40.084;32.908;2023-10-09T13:11:45;5.22;;;1.40;;
72584;SDS011;60618;40.084;32.908;2023-10-09T13:14:12;5.05;;;1.40;;
72584;SDS011;60618;40.084;32.908;2023-10-09T13:16:39;4.00;;;1.40;;
72584;SDS011;60618;40.084;32.908;2023-10-09T13:19:06;7.35;;;1.50;;
72584;SDS011;60618;40.084;32.908;2023-10-09T13:21:33;4.73;;;1.37;;
72584;SDS011;60618;40.084;32.908;2023-10-09T13:24:00;5.40;;;1.50;;
72584;SDS011;60618;40.084;32.908;2023-10-09T13:26:27;5.40;;;1.35;;
72584;SDS011;60618;40.084;32.908;2023-10-09T13:28:59;4.20;;;1.40;;
72584;SDS011;60618;40.084;32.908;2023-10-09T13:31:27;5.07;;;1.45;;
72584;SDS011;60618;40.084;32.908;2023-10-09T13:33:53;4.63;;;1.30;;
72584;SDS011;60618;40.084;32.908;2023-10-09T13:36:22;4.70;;;1.40;;
72584;SDS011;60618;40.084;32.908;2023-10-09T13:38:49;3.97;;;1.40;;
72584;SDS011;60618;40.084;32.908;2023-10-09T13:41:16;4.55;;;1.60;;
72584;SDS011;60618;40.084;32.908;2023-10-09T13:43:43;4.63;;;1.60;;
72584;SDS011;60618;40.084;32.908;2023-10-09T13:46:10;4.17;;;1.50;;
72584;SDS011;60618;40.084;32.908;2023-10-09T13:48:41;5.05;;;1.40;;
72584;SDS011;60618;40.084;32.908;2023-10-09T14:08:29;5.23;;;1.50;;
72584;SDS011;60618;40.084;32.908;2023-10-09T14:10:56;4.65;;;1.50;;
72584;SDS011;60618;40.084;32.908;2023-10-09T14:13:23;6.78;;;1.55;;
72584;SDS011;60618;40.084;32.908;2023-10-09T14:15:50;5.50;;;1.65;;
72584;SDS011;60618;40.084;32.908;2023-10-09T14:18:17;8.85;;;1.60;;
72584;SDS011;60618;40.084;32.908;2023-10-09T14:20:44;3.87;;;1.30;;
72584;SDS011;60618;40.084;32.908;2023-10-09T14:23:11;6.10;;;1.50;;
72584;SDS011;60618;40.084;32.908;2023-10-09T14:25:38;5.97;;;1.58;;
72584;SDS011;60618;40.084;32.908;2023-10-09T14:28:06;4.82;;;1.60;;
72584;SDS011;60618;40.084;32.908;2023-10-09T14:30:34;4.60;;;1.58;;
72584;SDS011;60618;40.084;32.908;2023-10-09T14:33:04;4.57;;;1.53;;
72584;SDS011;60618;40.084;32.908;2023-10-09T14:35:32;4.82;;;1.50;;
72584;SDS011;60618;40.084;32.908;2023-10-09T14:37:59;4.88;;;1.63;;
72584;SDS011;60618;40.084;32.908;2023-10-09T14:40:27;4.85;;;1.60;;
72584;SDS011;60618;40.084;32.908;2023-10-09T14:42:53;5.53;;;1.67;;
72584;SDS011;60618;40.084;32.908;2023-10-09T14:45:26;7.63;;;2.00;;
72584;SDS011;60618;40.084;32.908;2023-10-09T14:47:54;4.82;;;1.63;;
72584;SDS011;60618;40.084;32.908;2023-10-09T14:50:21;5.88;;;1.80;;
72584;SDS011;60618;40.084;32.908;2023-10-09T14:52:49;5.57;;;1.65;;
72584;SDS011;60618;40.084;32.908;2023-10-09T14:55:16;5.70;;;1.70;;
72584;SDS011;60618;40.084;32.908;2023-10-09T14:57:43;5.20;;;1.50;;